Weather reports worldwide

Advertisment
Trondheim/Voll, Norway (1257): temperature & dewpoint: 25.09.2020 15:00:00 - 01.10.2020 15:00:00 (CEST)Trondheim/Voll, Norway (1257): wind speed & gusts: 25.09.2020 15:00:00 - 01.10.2020 15:00:00 (CEST)Trondheim/Voll, Norway (1257): wind direction: 25.09.2020 15:00:00 - 01.10.2020 15:00:00 (CEST)Trondheim/Voll, Norway (1257): reduced air pressure: 25.09.2020 15:00:00 - 01.10.2020 15:00:00 (CEST)Trondheim/Voll, Norway (1257): precipitation: 25.09.2020 15:00:00 - 01.10.2020 15:00:00 (CEST)
Date & Time tt [°C] td [°C] ff [km/h] ff [kn] fx [km/h] fx [kn] dd ppp [hPa] rr [mm]
01.10.2020 15:00:00 17,1 7,2 16 9 35 19 S 1013,1 0,0
01.10.2020 14:00:00 17,0 7,1 17 9 46 25 S 1012,9 0,0
01.10.2020 13:00:00 16,8 7,5 20 11 36 20 SSE 1013,2 0,0
01.10.2020 12:00:00 16,6 7,3 16 9 32 17 S 1013,4 0,0
01.10.2020 11:00:00 - - - - - - - - -
01.10.2020 10:00:00 15,1 6,7 10 5 21 11 S 1013,7 0,0
01.10.2020 09:00:00 - - - - - - - - -
01.10.2020 08:00:00 13,5 6,8 18 10 35 19 S 1012,8 0,0
01.10.2020 07:00:00 12,6 6,9 6 4 22 12 SSW 1013,5 0,0
01.10.2020 06:00:00 12,4 7,1 8 4 14 8 SSW 1013,2 0,0
01.10.2020 05:00:00 11,6 6,5 4 2 21 11 NE 1013,2 0,0
01.10.2020 04:00:00 13,2 7,0 9 5 29 16 SW 1012,7 0,0
01.10.2020 03:00:00 13,1 7,5 11 6 28 15 SSW 1012,8 0,0
01.10.2020 02:00:00 13,6 7,6 12 7 29 16 SSW 1012,7 0,0
01.10.2020 01:00:00 13,6 7,6 7 4 26 14 SSW 1013,0 0,0
01.10.2020 00:00:00 13,6 7,2 8 4 - - SSW 1013,0 0,0
30.09.2020 23:00:00 14,5 7,1 14 7 37 20 S 1013,0 0,0
30.09.2020 22:00:00 - - - - - - - - -
30.09.2020 21:00:00 - - - - - - - - -
30.09.2020 20:00:00 15,2 7,3 13 7 29 16 SSW 1012,7 0,0
30.09.2020 19:00:00 15,8 7,6 10 6 22 12 S 1012,2 0,0
30.09.2020 18:00:00 16,4 7,9 9 5 27 14 SSW 1011,7 0,0
30.09.2020 17:00:00 14,8 7,8 1 1 12 7 N 1011,6 0,0
30.09.2020 16:00:00 15,7 7,5 6 3 12 7 NE 1011,5 0,0
30.09.2020 15:00:00 15,9 7,7 5 3 14 8 N 1011,3 0,0
30.09.2020 14:00:00 17,7 7,5 6 3 14 8 S 1011,2 0,0
30.09.2020 13:00:00 15,8 7,3 9 5 22 12 S 1011,3 0,0
30.09.2020 12:00:00 15,0 6,8 9 5 32 18 S 1011,4 0,0
30.09.2020 11:00:00 13,8 6,2 10 5 25 13 S 1011,5 0,0
30.09.2020 10:00:00 13,7 5,9 10 5 27 15 S 1011,5 0,0
30.09.2020 09:00:00 10,7 5,0 3 2 18 10 SSE 1011,8 0,0
30.09.2020 08:00:00 12,3 5,5 10 6 25 13 S 1011,8 0,0
30.09.2020 07:00:00 13,1 6,0 10 5 26 14 S 1011,6 0,0
30.09.2020 06:00:00 11,2 9,0 3 2 19 10 E 1012,0 0,0
30.09.2020 05:00:00 - - - - - - - - -
30.09.2020 04:00:00 10,0 9,1 4 2 6 3 WSW 1012,0 0,0
30.09.2020 03:00:00 9,9 9,0 1 1 8 4 WNW 1012,0 0,0
30.09.2020 02:00:00 10,3 9,4 1 1 6 3 ENE 1012,2 0,0
30.09.2020 01:00:00 10,4 9,6 1 1 5 3 N 1012,2 0,0
30.09.2020 00:00:00 10,5 9,9 3 1 5 3 SSW 1012,6 0,0
29.09.2020 23:00:00 10,0 9,2 3 1 4 2 SSW 1012,7 0,0
29.09.2020 22:00:00 10,3 9,5 2 1 6 3 S 1012,9 0,0
29.09.2020 21:00:00 10,8 9,6 4 2 6 3 SSW 1013,0 0,0
29.09.2020 20:00:00 10,9 9,0 3 2 11 6 S 1013,0 0,0
29.09.2020 19:00:00 - - - - - - - - -
29.09.2020 18:00:00 13,1 9,9 1 1 8 4 E 1012,8 0,0
29.09.2020 17:00:00 15,3 10,3 5 3 13 7 NE 1012,7 0,0
29.09.2020 16:00:00 - - - - - - - - -
29.09.2020 15:00:00 15,4 10,0 9 5 13 7 NE 1013,3 0,0
29.09.2020 14:00:00 16,0 10,1 6 4 11 6 NNE 1013,4 0,0
29.09.2020 13:00:00 15,5 10,5 2 1 11 6 N 1013,7 0,0
29.09.2020 12:00:00 14,3 9,7 6 3 11 6 NNE 1013,7 0,0
29.09.2020 11:00:00 14,0 10,0 4 2 9 5 N 1013,5 0,0
29.09.2020 10:00:00 13,0 10,4 2 1 6 3 N 1013,3 0,0
29.09.2020 09:00:00 10,2 8,8 3 2 6 3 SSW 1013,2 0,0
29.09.2020 08:00:00 9,8 8,1 2 1 9 5 WNW 1012,8 0,1
29.09.2020 07:00:00 11,0 8,6 5 3 9 5 SSW 1012,4 0,0
29.09.2020 06:00:00 12,4 8,9 4 2 6 3 SE 1011,9 0,1
29.09.2020 05:00:00 12,9 8,8 4 2 12 6 NNW 1011,6 0,0
29.09.2020 04:00:00 15,5 9,0 5 3 20 11 SSW 1011,1 0,0
29.09.2020 03:00:00 16,9 8,3 5 3 31 17 WSW 1010,4 0,0
29.09.2020 02:00:00 17,1 8,0 6 4 29 16 ESE 1009,9 0,0
29.09.2020 01:00:00 - - - - 24 13 - - -
29.09.2020 00:00:00 17,4 8,5 7 4 24 13 SSE 1009,7 0,0
28.09.2020 23:00:00 15,2 9,8 3 2 18 10 E 1010,3 0,0
28.09.2020 22:00:00 17,7 10,1 7 4 22 12 SSW 1010,3 0,0
28.09.2020 21:00:00 - - - - 24 13 - - -
28.09.2020 20:00:00 18,4 10,0 9 5 22 12 S 1009,9 0,0
28.09.2020 19:00:00 18,8 10,4 7 4 21 12 SSW 1009,7 0,0
28.09.2020 18:00:00 20,3 10,4 10 6 20 11 S 1009,7 0,0
28.09.2020 17:00:00 18,1 12,8 3 1 6 3 WSW 1009,9 0,0
28.09.2020 16:00:00 17,8 11,6 2 1 10 5 N 1010,3 0,0
28.09.2020 15:00:00 - - - - - - - - -
28.09.2020 14:00:00 16,3 10,8 9 5 18 10 NNE 1011,7 0,0
28.09.2020 13:00:00 15,6 10,6 8 4 12 6 NNE 1012,3 0,0
28.09.2020 12:00:00 14,8 11,6 5 3 9 5 N 1012,8 0,0
28.09.2020 11:00:00 12,0 10,7 3 2 6 3 N 1013,2 0,0
28.09.2020 10:00:00 11,3 10,7 3 1 6 4 N 1013,2 0,0
28.09.2020 09:00:00 10,6 10,1 1 0 6 3 NNE 1013,2 0,0
28.09.2020 08:00:00 9,5 8,9 1 1 4 2 W 1013,6 0,0
28.09.2020 07:00:00 - - - - - - - - -
28.09.2020 06:00:00 9,7 9,1 2 1 4 2 WSW 1013,6 0,0
28.09.2020 05:00:00 10,1 9,3 2 1 4 2 SW 1013,7 0,0
28.09.2020 04:00:00 10,2 9,1 2 1 10 6 W 1014,0 0,0
28.09.2020 03:00:00 10,1 8,5 6 4 10 5 ENE 1014,4 0,0
28.09.2020 02:00:00 11,3 9,0 4 2 9 5 E 1014,5 0,0
28.09.2020 01:00:00 11,4 8,4 5 3 13 7 E 1014,7 0,0
28.09.2020 00:00:00 12,9 9,4 6 3 13 7 ESE 1014,8 0,0
27.09.2020 23:00:00 13,2 9,7 8 4 11 6 E 1014,6 0,0
27.09.2020 22:00:00 12,7 10,4 8 5 13 7 ESE 1014,5 0,0
27.09.2020 21:00:00 12,1 9,3 2 1 11 6 WSW 1014,4 0,0
27.09.2020 20:00:00 13,1 9,7 9 5 13 7 E 1014,2 0,0
27.09.2020 19:00:00 13,9 9,5 8 5 13 7 ESE 1013,9 0,0
27.09.2020 18:00:00 14,7 9,1 7 4 17 9 E 1013,8 0,0
27.09.2020 17:00:00 - - - - - - - - -
27.09.2020 16:00:00 14,3 8,0 10 6 21 11 E 1014,4 0,0
27.09.2020 15:00:00 14,1 7,9 8 4 20 11 E 1014,8 0,0
27.09.2020 14:00:00 14,5 7,3 10 5 22 12 ENE 1015,3 0,0
27.09.2020 13:00:00 14,2 7,3 10 5 21 12 E 1015,7 0,0
27.09.2020 12:00:00 12,7 6,5 10 6 22 12 E 1016,3 0,0
27.09.2020 11:00:00 10,8 6,2 13 7 25 13 ENE 1016,8 0,0
27.09.2020 10:00:00 9,3 5,1 12 7 21 12 ENE 1017,4 0,0
27.09.2020 09:00:00 8,2 5,0 11 6 17 9 ENE 1018,0 0,0
27.09.2020 08:00:00 7,2 4,5 11 6 16 9 ENE 1018,4 0,0
27.09.2020 07:00:00 - - - - - - - - -
27.09.2020 06:00:00 7,1 4,8 9 5 14 7 E 1019,1 0,0
27.09.2020 05:00:00 7,2 4,7 5 3 11 6 ENE 1019,5 0,0
27.09.2020 04:00:00 7,3 4,6 6 3 18 10 E 1019,6 0,0
27.09.2020 03:00:00 7,5 4,3 9 5 18 10 NE 1020,0 0,0
27.09.2020 02:00:00 6,4 4,9 1 0 6 3 N 1020,4 0,0
27.09.2020 01:00:00 6,5 4,7 4 2 6 4 ENE 1020,6 0,0
27.09.2020 00:00:00 7,1 4,6 6 3 12 7 NE 1020,5 0,0
26.09.2020 23:00:00 6,8 4,8 5 3 9 5 NE 1020,7 0,0
26.09.2020 22:00:00 6,7 4,4 5 3 9 5 NE 1020,5 0,0
26.09.2020 21:00:00 6,7 4,0 5 3 9 5 E 1020,6 0,0
26.09.2020 20:00:00 6,7 4,0 4 2 9 5 E 1020,4 0,0
26.09.2020 19:00:00 6,6 4,1 6 3 8 4 E 1019,9 0,1
26.09.2020 18:00:00 7,0 4,3 3 2 13 7 E 1019,2 0,0
26.09.2020 17:00:00 7,1 4,1 7 4 15 8 ENE 1018,6 0,0
26.09.2020 16:00:00 7,2 3,1 8 4 14 8 NE 1018,2 0,0
26.09.2020 15:00:00 7,1 2,8 9 5 15 8 NE 1017,8 0,0
26.09.2020 14:00:00 6,9 2,2 9 5 25 14 NE 1017,8 0,0
26.09.2020 13:00:00 6,8 2,1 16 9 27 15 NE 1017,3 0,0
26.09.2020 12:00:00 6,6 2,5 15 8 24 13 NE 1016,9 0,0
26.09.2020 11:00:00 6,3 2,8 17 9 34 18 NE 1016,8 0,0
26.09.2020 10:00:00 - - - - 35 19 - - -
26.09.2020 09:00:00 5,9 2,4 17 9 31 17 NNE 1016,0 0,0
26.09.2020 08:00:00 5,9 3,2 16 8 24 13 NE 1015,5 0,0
26.09.2020 07:00:00 5,8 3,2 14 8 27 15 NE 1015,1 0,0
26.09.2020 06:00:00 6,1 3,1 17 9 27 15 NE 1015,1 0,0
26.09.2020 05:00:00 6,2 2,8 14 7 26 14 NE 1015,1 0,0
26.09.2020 04:00:00 6,5 3,5 11 6 23 12 NNE 1014,9 0,0
26.09.2020 03:00:00 6,6 3,6 14 8 25 13 NE 1014,6 0,0
26.09.2020 02:00:00 6,7 3,9 13 7 31 17 NE 1014,7 0,0
26.09.2020 01:00:00 6,8 4,0 15 8 27 15 NE 1014,6 0,0
26.09.2020 00:00:00 7,0 4,2 13 7 22 12 NE 1014,8 0,0
25.09.2020 23:00:00 - - - - - - - - -
25.09.2020 22:00:00 7,6 4,2 14 7 24 13 NE 1014,3 0,0
25.09.2020 21:00:00 7,6 4,4 8 4 15 8 ENE 1013,7 0,0
25.09.2020 20:00:00 7,3 3,7 6 4 13 7 E 1013,0 0,0
25.09.2020 19:00:00 - - - - - - - - -
25.09.2020 18:00:00 8,9 2,3 8 4 17 9 NE 1012,0 0,0
25.09.2020 17:00:00 10,0 3,5 11 6 21 11 NNE 1011,4 0,0
25.09.2020 16:00:00 10,2 3,5 5 3 14 8 N 1011,4 0,0
25.09.2020 15:00:00 9,1 3,7 8 4 14 8 WNW 1010,9 0,0

tt = temperature
td = dewpoint
ff = wind speed
fx = gusts
dd = wind direction
ppp = reduced air pressure
rr = precipitation

Next stations